Terminal Aerodrome Forecast
Issued by NWS

Home | Current Version | Previous Version | Text Only | Print | Product List | Glossary On
Versions: 1 2 3 4 5 6 7 8 9 10 11 12 13 14 15 16 17 18 19 20 21 22 23
000
FTUS46 KOTX 180522
TAFSFF
TAF
KSFF 180522Z 1806/1906 13005KT P6SM SCT150 BKN180
     FM181500 22006KT P6SM SCT100 BKN130
     FM181900 24011G19KT P6SM VCSH SCT080 BKN100
     FM190300 25007KT P6SM SCT090 BKN100=

USA.gov is the U.S. government's official web portal to all federal, state and local government web resources and services.